Keego Harbor, MI (48320)

4:34 AM EDT on August 25, 2016 (GMT -0400)
cass lake | | Change Station

Elev 938 ft 42.62 °N, 83.35 °W | Updated 1 second ago

Mostly Cloudy
Mostly Cloudy
72.8 °F
Feels Like 72.8 °F
N
0.0
Wind Variable Wind from WSW
Gusts 2.0 mph

Today
High -- | Low -- °F
--% Chance of Precip.
Yesterday
High -- | Low -- °F
Precip. -- in
Pressure 29.94 in
Visibility 7.0 miles
Clouds Mostly Cloudy 600 ft
Dew Point 72 °F
Humidity 97%
Rainfall 0.00 in
Snow Depth Not available.
6:51 AM 8:18 PM
Waning Gibbous, 48% visible
METAR KPTK 250753Z AUTO 27006KT 7SM BKN006 23/22 A2996 RMK AO2 SLP139 T02280217
Pressure 29.94 in
Visibility 7.0 miles
Clouds Mostly Cloudy 600 ft
Dew Point 72 °F
Humidity 97%
Rainfall 0.00 in
Snow Depth Not available.
6:51 AM 8:18 PM
Waning Gibbous, 48% visible
METAR KPTK 250753Z AUTO 27006KT 7SM BKN006 23/22 A2996 RMK AO2 SLP139 T02280217

10-Day Weather Forecast

Almanac

Astronomy

Aug. 25, 2016 Rise Set
Actual Time
Civil Twilight
Nautical Twilight
Astronomical Twilight
Moon
Length of Visible Light
Length of Day
Tomorrow will be .
, % of the Moon is Illuminated

Today's Extremes

State Highs State Lows

Community

WunderPhotos

Upload Photos

1,934,814 photos uploaded!

WunderBlog® & News

Nearby

Air Quality

  Air Quality AQ Index Pollutant
Not available.

Snow Depth

Station Depth Elevation

Earthquake Activity

City Distance Mag. Time & Date
Minimum magnitude displayed is 2.5.

Coastal Water Temperatures

Place Temperature

Stations

Nearby Weather Stations

Station Location Temp. Windchill Dew Point Humidity Wind Precip. Elev Updated Type
                   

Watches & Warnings

There are currently no watches in effect.